Time;durP1;ratioP1;P1;durP2;ratioP2;P2;SDS_P1;SDS_P2;PMS_P1;PMS_P2;Temp;Humidity;BMP_temperature;BMP_pressure;BME280_temperature;BME280_humidity;BME280_pressure;Samples;Min_cycle;Max_cycle;Signal;HPM_P1;HPM_P2
2022/12/21 00:02:03;;;;;;;16.70;12.33;;;;;;;;;;5004109;28;20029;-75
2022/12/21 00:04:29;;;;;;;14.53;10.73;;;;;;;;;;5002220;28;20029;-76
2022/12/21 00:06:56;;;;;;;14.87;9.30;;;;;;;;;;5005252;28;20029;-76
2022/12/21 00:09:23;;;;;;;12.50;8.80;;;;;;;;;;5005503;28;20128;-75
2022/12/21 00:11:49;;;;;;;15.40;9.47;;;;;;;;;;5002857;28;20041;-77
2022/12/21 00:14:15;;;;;;;14.67;9.40;;;;;;;;;;5022148;28;20057;-75
2022/12/21 00:16:41;;;;;;;13.80;9.33;;;;;;;;;;5023327;28;20041;-75
2022/12/21 00:19:07;;;;;;;12.87;8.67;;;;;;;;;;5010045;28;20096;-77
2022/12/21 00:21:37;;;;;;;15.20;9.60;;;;;;;;;;5005479;28;20112;-77
2022/12/21 00:24:03;;;;;;;13.90;8.73;;;;;;;;;;5002696;28;20438;-76
2022/12/21 00:26:30;;;;;;;11.77;8.87;;;;;;;;;;5006922;28;20026;-76
2022/12/21 00:28:57;;;;;;;14.53;9.50;;;;;;;;;;5006218;28;20033;-76
2022/12/21 00:31:27;;;;;;;16.40;9.90;;;;;;;;;;5010564;28;20030;-76
2022/12/21 00:33:54;;;;;;;15.70;9.70;;;;;;;;;;5003537;28;20052;-77
2022/12/21 00:36:21;;;;;;;15.10;10.87;;;;;;;;;;5023138;28;20052;-77
2022/12/21 00:38:47;;;;;;;17.80;12.43;;;;;;;;;;5021672;28;20458;-77
2022/12/21 00:41:14;;;;;;;16.83;11.00;;;;;;;;;;5025285;28;20048;-77
2022/12/21 00:43:40;;;;;;;21.40;13.67;;;;;;;;;;5004124;28;20069;-77
2022/12/21 00:46:06;;;;;;;24.33;13.67;;;;;;;;;;5028892;28;20040;-76
2022/12/21 00:48:34;;;;;;;18.20;12.40;;;;;;;;;;5025331;28;20029;-78
2022/12/21 00:51:07;;;;;;;16.33;12.90;;;;;;;;;;5007849;28;20927;-76
2022/12/21 00:53:33;;;;;;;16.90;12.37;;;;;;;;;;5025872;28;20053;-76
2022/12/21 00:56:00;;;;;;;18.77;12.93;;;;;;;;;;5009453;28;20040;-76
2022/12/21 00:58:26;;;;;;;16.07;11.57;;;;;;;;;;5007287;28;20030;-77
2022/12/21 01:00:56;;;;;;;73.10;15.83;;;;;;;;;;5012812;28;20084;-77
2022/12/21 01:03:23;;;;;;;36.43;12.53;;;;;;;;;;5029390;28;20025;-77
2022/12/21 01:05:52;;;;;;;40.63;12.67;;;;;;;;;;5007790;28;20030;-77
2022/12/21 01:08:21;;;;;;;106.53;18.43;;;;;;;;;;5008210;28;20036;-77
2022/12/21 01:10:47;;;;;;;58.23;11.80;;;;;;;;;;5027247;28;20037;-77
2022/12/21 01:13:14;;;;;;;80.07;14.97;;;;;;;;;;5008867;28;20053;-78
2022/12/21 01:15:44;;;;;;;18.43;12.10;;;;;;;;;;5017164;28;20049;-77
2022/12/21 01:18:10;;;;;;;12.37;9.83;;;;;;;;;;5024606;28;20458;-77
2022/12/21 01:20:40;;;;;;;15.47;10.97;;;;;;;;;;5019959;28;20480;-76
2022/12/21 01:23:06;;;;;;;12.97;10.13;;;;;;;;;;5006689;28;20466;-78
2022/12/21 01:25:32;;;;;;;15.97;12.30;;;;;;;;;;5023500;28;20036;-78
2022/12/21 01:28:01;;;;;;;16.37;11.33;;;;;;;;;;5019788;28;20037;-77
2022/12/21 01:30:27;;;;;;;15.80;11.13;;;;;;;;;;5037284;28;20456;-77
2022/12/21 01:32:58;;;;;;;21.73;11.97;;;;;;;;;;5020094;28;20025;-77
2022/12/21 01:35:24;;;;;;;17.17;10.97;;;;;;;;;;5037620;28;20030;-77
2022/12/21 01:37:50;;;;;;;16.83;10.73;;;;;;;;;;5036843;28;20112;-77
2022/12/21 01:40:16;;;;;;;15.00;10.43;;;;;;;;;;5019462;28;20030;-78
2022/12/21 01:42:45;;;;;;;16.20;11.93;;;;;;;;;;5036684;28;20022;-78
2022/12/21 01:45:24;;;;;;;16.60;11.83;;;;;;;;;;5026130;28;20037;-78
2022/12/21 01:47:54;;;;;;;17.17;12.30;;;;;;;;;;5019149;28;20120;-76
2022/12/21 01:50:36;;;;;;;14.40;10.67;;;;;;;;;;5039470;28;20044;-77
2022/12/21 01:53:07;;;;;;;13.80;10.38;;;;;;;;;;5019630;28;20022;-77
2022/12/21 01:55:34;;;;;;;15.30;9.90;;;;;;;;;;5044305;28;20021;-77
2022/12/21 01:58:00;;;;;;;13.53;9.20;;;;;;;;;;5042910;28;20029;-78
2022/12/21 02:00:26;;;;;;;13.83;9.70;;;;;;;;;;5033056;28;20109;-76
2022/12/21 02:02:55;;;;;;;14.97;9.77;;;;;;;;;;5036667;28;20392;-77
2022/12/21 02:05:21;;;;;;;14.97;10.63;;;;;;;;;;5026537;28;20431;-77
2022/12/21 02:07:47;;;;;;;11.83;9.57;;;;;;;;;;5041582;28;20033;-77
2022/12/21 02:10:16;;;;;;;20.57;12.67;;;;;;;;;;5019211;28;20025;-77
2022/12/21 02:12:47;;;;;;;14.40;10.27;;;;;;;;;;5031660;28;20147;-77
2022/12/21 02:15:15;;;;;;;16.50;11.27;;;;;;;;;;5036233;28;20357;-76
2022/12/21 02:17:41;;;;;;;19.40;10.43;;;;;;;;;;5019004;28;20025;-76
2022/12/21 02:20:16;;;;;;;15.90;11.40;;;;;;;;;;5018883;28;20033;-77
2022/12/21 02:22:52;;;;;;;23.47;12.90;;;;;;;;;;5036126;28;20057;-76
2022/12/21 02:25:32;;;;;;;23.77;12.37;;;;;;;;;;5019151;28;20022;-75
2022/12/21 02:28:04;;;;;;;28.33;13.27;;;;;;;;;;5023044;28;20029;-76
2022/12/21 02:30:50;;;;;;;27.33;14.95;;;;;;;;;;5027133;28;20080;-77
2022/12/21 02:33:39;;;;;;;23.67;15.93;;;;;;;;;;4999126;28;20034;-77
2022/12/21 02:36:05;;;;;;;18.50;13.63;;;;;;;;;;5010834;28;20033;-77
2022/12/21 02:38:34;;;;;;;20.83;15.70;;;;;;;;;;5018743;28;20036;-76
2022/12/21 02:41:06;;;;;;;25.33;14.23;;;;;;;;;;5030285;28;20029;-78
2022/12/21 02:46:30;;;;;;;21.60;13.97;;;;;;;;;;5032743;28;20048;-77
2022/12/21 02:49:07;;;;;;;23.80;13.43;;;;;;;;;;5019421;28;20028;-77
2022/12/21 02:51:36;;;;;;;18.40;13.40;;;;;;;;;;5023722;28;20009;-77
2022/12/21 02:54:03;;;;;;;20.30;14.87;;;;;;;;;;5020447;28;20053;-77
2022/12/21 02:56:29;;;;;;;23.43;14.83;;;;;;;;;;5023532;28;20021;-77
2022/12/21 02:58:55;;;;;;;29.37;12.77;;;;;;;;;;5018265;28;20033;-77
2022/12/21 03:01:24;;;;;;;16.13;11.60;;;;;;;;;;5018691;28;20347;-76
2022/12/21 03:04:17;;;;;;;16.63;11.90;;;;;;;;;;5020337;28;20026;-77
2022/12/21 03:06:58;;;;;;;22.08;12.07;;;;;;;;;;5016278;28;20040;-77
2022/12/21 03:09:40;;;;;;;20.60;13.30;;;;;;;;;;5020717;28;20438;-77
2022/12/21 03:12:15;;;;;;;16.50;10.63;;;;;;;;;;5020046;28;20412;-77
2022/12/21 03:14:44;;;;;;;16.23;12.33;;;;;;;;;;5015606;28;20272;-78
2022/12/21 03:17:21;;;;;;;18.23;12.53;;;;;;;;;;5014290;28;20497;-75
2022/12/21 03:19:55;;;;;;;24.33;13.43;;;;;;;;;;5025921;28;20065;-77
2022/12/21 03:22:34;;;;;;;27.60;15.17;;;;;;;;;;5017518;28;20029;-78
2022/12/21 03:25:08;;;;;;;24.00;14.57;;;;;;;;;;5017768;28;20505;-77
2022/12/21 03:27:36;;;;;;;22.03;12.63;;;;;;;;;;5017572;28;20021;-77
2022/12/21 03:30:05;;;;;;;21.90;14.33;;;;;;;;;;5039721;28;20018;-77
2022/12/21 03:32:44;;;;;;;23.03;13.30;;;;;;;;;;5028845;28;20037;-78
2022/12/21 03:35:18;;;;;;;23.30;13.93;;;;;;;;;;5008087;28;20468;-77
2022/12/21 03:37:46;;;;;;;19.30;13.83;;;;;;;;;;5017901;28;20083;-77
2022/12/21 03:40:18;;;;;;;24.33;15.57;;;;;;;;;;5034911;28;20029;-77
2022/12/21 03:42:47;;;;;;;23.42;15.13;;;;;;;;;;5042165;28;20037;-77
2022/12/21 03:45:16;;;;;;;18.73;12.90;;;;;;;;;;5018044;28;20038;-77
2022/12/21 03:47:45;;;;;;;18.13;13.13;;;;;;;;;;5028607;28;20021;-77
2022/12/21 03:50:15;;;;;;;20.13;12.63;;;;;;;;;;5035956;28;20156;-77
2022/12/21 03:52:44;;;;;;;19.90;12.57;;;;;;;;;;5017473;28;20064;-77
2022/12/21 03:55:17;;;;;;;19.27;12.57;;;;;;;;;;5018860;28;20025;-77
2022/12/21 03:57:43;;;;;;;17.58;12.05;;;;;;;;;;5017387;28;20029;-77
2022/12/21 04:00:16;;;;;;;20.20;13.17;;;;;;;;;;5016967;28;20030;-77
2022/12/21 04:03:02;;;;;;;20.75;12.82;;;;;;;;;;5017596;28;20125;-77
2022/12/21 04:05:39;;;;;;;17.77;12.43;;;;;;;;;;5030854;28;20025;-77
2022/12/21 04:08:05;;;;;;;24.77;14.07;;;;;;;;;;5017418;28;20021;-77
2022/12/21 04:10:31;;;;;;;23.07;14.60;;;;;;;;;;5031034;28;20492;-77
2022/12/21 04:12:57;;;;;;;21.60;13.30;;;;;;;;;;5017334;28;20033;-77
2022/12/21 04:16:03;;;;;;;21.40;14.50;;;;;;;;;;5016510;28;20385;-76
2022/12/21 04:18:10;;;;;;;20.20;13.17;;;;;;;;;;5028475;28;20037;-77
2022/12/21 04:20:36;;;;;;;22.20;14.30;;;;;;;;;;5019615;28;20033;-77
2022/12/21 04:28:32;;;;;;;27.07;15.80;;;;;;;;;;5037475;28;20048;-78
2022/12/21 04:30:59;;;;;;;18.60;12.47;;;;;;;;;;5019465;28;20609;-77
2022/12/21 04:33:26;;;;;;;32.10;15.33;;;;;;;;;;5047778;28;20041;-77
2022/12/21 04:38:38;;;;;;;28.10;15.60;;;;;;;;;;5032188;28;20052;-77
2022/12/21 04:41:04;;;;;;;24.93;13.90;;;;;;;;;;5021789;28;20167;-78
2022/12/21 04:43:30;;;;;;;20.07;12.60;;;;;;;;;;5037194;28;20029;-78
2022/12/21 04:46:04;;;;;;;18.73;10.87;;;;;;;;;;5022651;28;20030;-77
2022/12/21 04:48:32;;;;;;;14.80;10.53;;;;;;;;;;5030545;28;20152;-78
2022/12/21 04:51:09;;;;;;;19.83;13.87;;;;;;;;;;5042758;28;20025;-77
2022/12/21 04:53:36;;;;;;;19.90;12.30;;;;;;;;;;5018933;28;20025;-78
2022/12/21 04:56:02;;;;;;;27.20;13.23;;;;;;;;;;5039351;28;20052;-77
2022/12/21 04:58:28;;;;;;;20.40;13.73;;;;;;;;;;5019200;28;20033;-77
2022/12/21 05:00:54;;;;;;;29.30;15.83;;;;;;;;;;5019739;28;20350;-78
2022/12/21 05:03:20;;;;;;;25.50;15.73;;;;;;;;;;5024047;28;20446;-78
2022/12/21 05:05:47;;;;;;;26.73;14.30;;;;;;;;;;5019027;28;20112;-78
2022/12/21 05:08:13;;;;;;;24.27;15.07;;;;;;;;;;5018973;28;20053;-78
2022/12/21 05:10:39;;;;;;;28.17;16.80;;;;;;;;;;5019852;28;20026;-78
2022/12/21 05:13:05;;;;;;;28.73;13.90;;;;;;;;;;5028443;28;20044;-77
2022/12/21 05:15:34;;;;;;;20.73;12.57;;;;;;;;;;4976862;28;1084749;-78
2022/12/21 05:18:00;;;;;;;22.67;14.17;;;;;;;;;;5015804;28;20040;-76
2022/12/21 05:20:26;;;;;;;25.57;15.27;;;;;;;;;;5008363;28;20029;-77
2022/12/21 05:22:52;;;;;;;23.97;14.50;;;;;;;;;;5007663;28;20071;-77
2022/12/21 05:25:23;;;;;;;22.30;14.97;;;;;;;;;;5026456;28;20052;-78
2022/12/21 05:27:49;;;;;;;26.97;14.73;;;;;;;;;;5008984;28;21545;-77
2022/12/21 05:30:15;;;;;;;24.47;14.73;;;;;;;;;;5026482;28;20022;-77
2022/12/21 05:32:41;;;;;;;24.27;15.53;;;;;;;;;;5007560;28;20041;-77
2022/12/21 05:35:08;;;;;;;23.70;13.83;;;;;;;;;;5007261;28;20025;-78
2022/12/21 05:37:34;;;;;;;31.93;16.33;;;;;;;;;;5011109;28;20029;-76
2022/12/21 05:40:02;;;;;;;23.53;13.70;;;;;;;;;;5006956;28;20044;-76
2022/12/21 05:42:28;;;;;;;26.23;15.43;;;;;;;;;;5009954;28;20255;-78
2022/12/21 05:44:54;;;;;;;28.40;15.37;;;;;;;;;;5007025;28;20052;-77
2022/12/21 05:47:21;;;;;;;24.50;14.23;;;;;;;;;;5011212;28;20493;-77
2022/12/21 05:49:47;;;;;;;28.70;15.20;;;;;;;;;;5024893;28;20026;-78
2022/12/21 05:52:13;;;;;;;28.27;16.43;;;;;;;;;;5026527;28;20080;-76
2022/12/21 05:54:39;;;;;;;26.73;15.67;;;;;;;;;;5026341;28;20033;-77
2022/12/21 05:57:05;;;;;;;23.63;14.90;;;;;;;;;;5026004;28;20041;-78
2022/12/21 05:59:31;;;;;;;19.67;12.67;;;;;;;;;;5006151;28;20092;-76
2022/12/21 06:01:57;;;;;;;25.80;14.47;;;;;;;;;;5005954;28;20041;-77
2022/12/21 06:04:23;;;;;;;23.23;13.87;;;;;;;;;;5009749;28;20026;-78
2022/12/21 06:06:49;;;;;;;20.93;14.13;;;;;;;;;;5006350;28;20108;-76
2022/12/21 06:09:18;;;;;;;21.50;13.77;;;;;;;;;;5009466;28;20053;-77
2022/12/21 06:11:44;;;;;;;21.17;13.80;;;;;;;;;;5007418;28;20060;-76
2022/12/21 06:14:10;;;;;;;21.10;13.70;;;;;;;;;;5008751;28;20032;-77
2022/12/21 06:16:36;;;;;;;19.87;14.67;;;;;;;;;;5007963;28;20057;-77
2022/12/21 06:19:02;;;;;;;30.17;16.43;;;;;;;;;;5025377;28;20052;-77
2022/12/21 06:21:28;;;;;;;99.70;23.23;;;;;;;;;;5006238;28;20033;-77
2022/12/21 06:23:54;;;;;;;29.50;15.23;;;;;;;;;;5023925;28;20029;-76
2022/12/21 06:26:20;;;;;;;21.00;14.10;;;;;;;;;;5026188;28;20033;-76
2022/12/21 06:28:47;;;;;;;24.30;15.77;;;;;;;;;;5006748;28;20119;-78
2022/12/21 06:31:13;;;;;;;23.37;15.20;;;;;;;;;;5008887;28;20041;-77
2022/12/21 06:33:42;;;;;;;23.53;15.23;;;;;;;;;;5007083;28;20029;-77
2022/12/21 06:36:11;;;;;;;23.30;15.43;;;;;;;;;;5006847;28;20120;-76
2022/12/21 06:38:37;;;;;;;22.07;14.97;;;;;;;;;;5009513;28;21696;-78
2022/12/21 06:41:05;;;;;;;34.67;17.57;;;;;;;;;;5005675;28;20040;-77
2022/12/21 06:43:32;;;;;;;27.53;15.73;;;;;;;;;;5006251;28;20060;-77
2022/12/21 06:45:59;;;;;;;30.17;16.33;;;;;;;;;;5012150;28;20041;-77
2022/12/21 06:48:26;;;;;;;26.97;16.17;;;;;;;;;;5020927;28;20091;-77
2022/12/21 06:50:52;;;;;;;24.70;14.73;;;;;;;;;;5006013;28;20131;-76
2022/12/21 06:53:18;;;;;;;30.10;16.53;;;;;;;;;;5007578;28;20029;-78
2022/12/21 06:55:44;;;;;;;37.20;17.17;;;;;;;;;;5023719;28;20033;-78
2022/12/21 06:58:10;;;;;;;28.87;17.10;;;;;;;;;;5021963;28;21529;-77
2022/12/21 07:00:36;;;;;;;33.27;18.60;;;;;;;;;;5003486;28;20030;-77
2022/12/21 07:03:05;;;;;;;50.53;24.63;;;;;;;;;;5011147;28;20037;-76
2022/12/21 07:05:31;;;;;;;42.33;25.07;;;;;;;;;;5011755;28;20029;-76
2022/12/21 07:07:57;;;;;;;34.87;20.33;;;;;;;;;;5008958;28;20042;-76
2022/12/21 07:10:23;;;;;;;27.47;17.67;;;;;;;;;;5030028;28;20026;-77
2022/12/21 07:12:49;;;;;;;30.77;18.20;;;;;;;;;;5026271;28;20029;-77
2022/12/21 07:15:15;;;;;;;31.33;17.27;;;;;;;;;;5030784;28;20492;-79
2022/12/21 07:17:41;;;;;;;26.67;17.40;;;;;;;;;;5018303;28;20030;-78
2022/12/21 07:20:07;;;;;;;33.90;17.23;;;;;;;;;;5020224;28;20026;-78
2022/12/21 07:22:33;;;;;;;27.90;16.97;;;;;;;;;;5037318;28;20422;-79
2022/12/21 07:24:59;;;;;;;28.87;16.40;;;;;;;;;;5043522;28;20049;-79
2022/12/21 07:27:25;;;;;;;27.73;17.90;;;;;;;;;;5022078;28;20021;-80
2022/12/21 07:29:51;;;;;;;24.37;16.30;;;;;;;;;;5013550;28;20022;-79
2022/12/21 07:32:18;;;;;;;22.63;14.20;;;;;;;;;;5016494;28;20029;-78
2022/12/21 07:34:44;;;;;;;22.23;13.83;;;;;;;;;;5033300;28;20083;-79
2022/12/21 07:37:10;;;;;;;18.53;12.23;;;;;;;;;;5019226;28;20026;-79
2022/12/21 07:39:36;;;;;;;19.53;11.17;;;;;;;;;;5037481;28;20108;-79
2022/12/21 07:42:02;;;;;;;15.70;11.07;;;;;;;;;;5026550;28;20044;-79
2022/12/21 07:44:28;;;;;;;18.73;11.50;;;;;;;;;;5021666;28;20108;-79
2022/12/21 07:46:54;;;;;;;20.67;11.83;;;;;;;;;;5018893;28;20122;-80
2022/12/21 07:49:21;;;;;;;14.30;11.47;;;;;;;;;;5018477;28;20331;-79
2022/12/21 07:51:47;;;;;;;24.33;11.60;;;;;;;;;;5036315;28;20021;-79
2022/12/21 07:54:15;;;;;;;18.27;10.57;;;;;;;;;;5009301;28;20026;-79
2022/12/21 07:56:41;;;;;;;14.20;8.23;;;;;;;;;;5000139;28;20018;-79
2022/12/21 07:59:10;;;;;;;15.17;8.97;;;;;;;;;;5028944;28;20115;-78
2022/12/21 08:01:36;;;;;;;12.93;8.50;;;;;;;;;;5038703;28;20025;-78
2022/12/21 08:04:02;;;;;;;13.53;9.23;;;;;;;;;;5019495;28;20021;-79
2022/12/21 08:06:28;;;;;;;12.77;8.80;;;;;;;;;;5035403;28;20033;-78
2022/12/21 08:08:54;;;;;;;17.67;9.13;;;;;;;;;;5019882;28;20427;-79
2022/12/21 08:11:20;;;;;;;14.27;9.20;;;;;;;;;;5020239;28;20442;-79
2022/12/21 08:13:47;;;;;;;16.53;8.87;;;;;;;;;;5030793;28;20124;-79
2022/12/21 08:16:14;;;;;;;10.87;8.33;;;;;;;;;;5026331;28;20045;-78
2022/12/21 08:18:40;;;;;;;19.90;11.93;;;;;;;;;;5037233;28;20029;-79
2022/12/21 08:21:06;;;;;;;12.33;8.13;;;;;;;;;;5029775;28;20097;-80
2022/12/21 08:23:32;;;;;;;16.53;9.37;;;;;;;;;;5019253;28;20068;-78
2022/12/21 08:26:03;;;;;;;15.07;8.23;;;;;;;;;;5023339;28;20450;-79
2022/12/21 08:28:30;;;;;;;16.97;9.40;;;;;;;;;;5021780;28;20087;-78
2022/12/21 08:31:03;;;;;;;15.60;8.90;;;;;;;;;;5035341;28;20072;-80
2022/12/21 08:33:29;;;;;;;12.93;7.00;;;;;;;;;;5027695;28;20116;-81
2022/12/21 08:35:56;;;;;;;10.80;6.90;;;;;;;;;;5027930;28;20029;-78
2022/12/21 08:38:22;;;;;;;15.23;7.67;;;;;;;;;;5023287;28;20030;-77
2022/12/21 08:40:48;;;;;;;12.90;6.57;;;;;;;;;;5020150;28;20465;-79
2022/12/21 08:43:15;;;;;;;15.00;8.20;;;;;;;;;;5020432;28;20122;-79
2022/12/21 08:45:41;;;;;;;14.60;8.03;;;;;;;;;;5020003;28;20026;-79
2022/12/21 08:48:07;;;;;;;16.90;9.73;;;;;;;;;;5020776;28;20022;-79
2022/12/21 08:50:33;;;;;;;10.50;6.03;;;;;;;;;;5012906;28;20029;-80
2022/12/21 08:52:59;;;;;;;12.97;6.90;;;;;;;;;;5042166;28;20067;-79
2022/12/21 08:55:25;;;;;;;9.77;6.03;;;;;;;;;;5021429;28;20030;-78
2022/12/21 08:57:51;;;;;;;11.50;7.83;;;;;;;;;;5027674;28;20025;-80
2022/12/21 09:00:17;;;;;;;11.17;6.63;;;;;;;;;;5043172;28;20116;-80
2022/12/21 09:02:43;;;;;;;8.77;6.03;;;;;;;;;;5021922;28;20465;-80
2022/12/21 09:05:10;;;;;;;8.83;5.67;;;;;;;;;;5025457;28;20311;-79
2022/12/21 09:07:38;;;;;;;12.83;5.80;;;;;;;;;;5019925;28;20454;-81
2022/12/21 09:10:05;;;;;;;12.60;6.40;;;;;;;;;;5046706;28;20528;-79
2022/12/21 09:12:31;;;;;;;9.43;6.20;;;;;;;;;;5024075;28;20030;-77
2022/12/21 09:14:57;;;;;;;13.43;5.87;;;;;;;;;;5023560;28;20068;-80
2022/12/21 09:17:23;;;;;;;16.37;6.40;;;;;;;;;;5022577;28;20030;-80
2022/12/21 09:19:49;;;;;;;9.23;6.03;;;;;;;;;;5025974;28;20037;-78
2022/12/21 09:22:15;;;;;;;7.90;5.40;;;;;;;;;;5019007;28;20029;-79
2022/12/21 09:24:41;;;;;;;10.20;6.23;;;;;;;;;;5022955;28;20113;-79
2022/12/21 09:27:07;;;;;;;9.77;5.77;;;;;;;;;;5017469;28;20033;-78
2022/12/21 09:29:35;;;;;;;12.33;6.10;;;;;;;;;;5019766;28;20022;-77
2022/12/21 09:32:01;;;;;;;12.70;5.70;;;;;;;;;;5019898;28;20434;-78
2022/12/21 09:34:27;;;;;;;14.20;6.20;;;;;;;;;;5023003;28;20433;-78
2022/12/21 09:36:53;;;;;;;11.20;6.40;;;;;;;;;;5025980;28;20056;-78
2022/12/21 09:39:20;;;;;;;12.30;6.07;;;;;;;;;;5023583;28;20025;-79
2022/12/21 09:41:51;;;;;;;14.70;6.47;;;;;;;;;;5020322;28;20018;-79
2022/12/21 09:44:19;;;;;;;11.60;6.22;;;;;;;;;;5033853;28;20087;-79
2022/12/21 09:46:46;;;;;;;11.30;6.93;;;;;;;;;;5020530;28;20026;-79
2022/12/21 09:49:16;;;;;;;9.00;6.43;;;;;;;;;;5016872;28;20026;-77
2022/12/21 09:51:46;;;;;;;15.60;7.07;;;;;;;;;;5026246;28;20021;-79
2022/12/21 09:54:19;;;;;;;15.23;8.87;;;;;;;;;;5031691;28;20025;-79
2022/12/21 09:56:47;;;;;;;14.27;9.30;;;;;;;;;;5012259;28;20445;-79
2022/12/21 09:59:14;;;;;;;16.87;9.23;;;;;;;;;;5019386;28;20025;-80
2022/12/21 10:01:42;;;;;;;13.43;9.83;;;;;;;;;;5020178;28;20024;-77
2022/12/21 10:04:11;;;;;;;14.17;10.10;;;;;;;;;;5029807;28;20320;-78
2022/12/21 10:06:47;;;;;;;12.83;9.63;;;;;;;;;;5011687;28;20049;-79
2022/12/21 10:09:45;;;;;;;16.33;11.53;;;;;;;;;;5019786;28;20040;-78
2022/12/21 10:12:11;;;;;;;17.93;10.97;;;;;;;;;;5008275;28;20061;-78
2022/12/21 10:14:40;;;;;;;20.03;11.07;;;;;;;;;;5018153;28;20447;-79
2022/12/21 10:17:10;;;;;;;21.30;12.53;;;;;;;;;;5007769;28;20038;-79
2022/12/21 10:19:41;;;;;;;22.50;11.47;;;;;;;;;;5027272;28;20055;-79
2022/12/21 10:22:21;;;;;;;19.17;12.33;;;;;;;;;;5033820;28;20033;-78
2022/12/21 10:24:50;;;;;;;20.77;12.67;;;;;;;;;;5020813;28;20468;-79
2022/12/21 10:27:22;;;;;;;21.03;12.50;;;;;;;;;;5019086;28;20029;-79
2022/12/21 10:29:51;;;;;;;18.10;11.27;;;;;;;;;;5029588;28;20039;-78
2022/12/21 10:32:17;;;;;;;17.60;10.20;;;;;;;;;;5037357;28;20036;-78
2022/12/21 10:34:47;;;;;;;19.90;10.43;;;;;;;;;;5021294;28;20022;-79
2022/12/21 10:37:16;;;;;;;13.47;7.93;;;;;;;;;;5042478;28;20074;-78
2022/12/21 10:39:43;;;;;;;14.73;9.00;;;;;;;;;;5019119;28;20167;-79
2022/12/21 10:42:18;;;;;;;15.83;8.33;;;;;;;;;;5036509;28;20040;-79
2022/12/21 10:44:44;;;;;;;18.23;9.63;;;;;;;;;;5019358;28;20025;-79
2022/12/21 10:47:15;;;;;;;20.93;8.90;;;;;;;;;;5011700;28;20018;-78
2022/12/21 10:49:42;;;;;;;16.70;10.67;;;;;;;;;;5015414;28;20017;-78
2022/12/21 10:52:27;;;;;;;17.63;10.93;;;;;;;;;;5010185;28;20030;-78
2022/12/21 10:54:55;;;;;;;21.70;10.10;;;;;;;;;;5025886;28;20058;-78
2022/12/21 10:57:26;;;;;;;18.07;9.67;;;;;;;;;;5035390;28;20033;-78
2022/12/21 10:59:54;;;;;;;14.07;7.47;;;;;;;;;;5013658;28;20427;-79
2022/12/21 11:05:38;;;;;;;16.50;5.67;;;;;;;;;;5029904;28;20462;-77
2022/12/21 11:08:13;;;;;;;19.53;6.57;;;;;;;;;;5019516;28;20030;-79
2022/12/21 11:10:52;;;;;;;12.40;4.03;;;;;;;;;;5020514;28;20446;-77
2022/12/21 11:13:19;;;;;;;13.77;5.33;;;;;;;;;;5018270;28;20068;-78
2022/12/21 11:16:17;;;;;;;14.00;5.00;;;;;;;;;;5018000;28;20120;-76
2022/12/21 11:18:44;;;;;;;15.90;3.67;;;;;;;;;;4992322;28;20482;-78
2022/12/21 11:21:13;;;;;;;23.10;5.30;;;;;;;;;;5015006;28;21838;-78
2022/12/21 11:23:39;;;;;;;15.87;4.67;;;;;;;;;;5005455;28;20066;-76
2022/12/21 11:26:16;;;;;;;17.47;5.17;;;;;;;;;;5026589;28;20092;-79
2022/12/21 11:28:42;;;;;;;19.70;5.57;;;;;;;;;;5011537;28;20458;-79
2022/12/21 11:31:08;;;;;;;14.23;5.43;;;;;;;;;;5016556;28;20030;-79
2022/12/21 11:33:34;;;;;;;15.00;5.03;;;;;;;;;;5009158;28;20076;-78
2022/12/21 11:36:06;;;;;;;16.13;6.07;;;;;;;;;;5012033;28;20029;-77
2022/12/21 11:38:36;;;;;;;17.33;6.70;;;;;;;;;;5025918;28;20446;-77
2022/12/21 11:41:09;;;;;;;14.57;6.47;;;;;;;;;;5011765;28;20033;-78
2022/12/21 11:43:43;;;;;;;13.03;5.70;;;;;;;;;;5009710;28;20029;-76
2022/12/21 11:46:16;;;;;;;13.10;4.50;;;;;;;;;;5013797;28;20030;-78
2022/12/21 11:48:42;;;;;;;13.25;4.45;;;;;;;;;;5007337;28;20037;-78
2022/12/21 11:51:14;;;;;;;8.13;4.10;;;;;;;;;;5011554;28;20021;-78
2022/12/21 11:53:55;;;;;;;5.57;3.10;;;;;;;;;;5006124;28;20044;-77
2022/12/21 11:56:21;;;;;;;12.57;4.00;;;;;;;;;;5026393;28;20021;-76
2022/12/21 11:58:47;;;;;;;8.67;3.47;;;;;;;;;;5011504;28;20040;-78
2022/12/21 12:01:26;;;;;;;8.70;3.00;;;;;;;;;;5011058;28;20034;-76
2022/12/21 12:04:10;;;;;;;13.37;4.27;;;;;;;;;;5011175;28;20034;-77
2022/12/21 12:06:39;;;;;;;8.43;3.93;;;;;;;;;;5007573;28;20034;-79
2022/12/21 12:09:05;;;;;;;8.47;3.40;;;;;;;;;;5007838;28;20033;-78
2022/12/21 12:11:50;;;;;;;11.33;3.47;;;;;;;;;;5010520;28;20096;-77
2022/12/21 12:14:34;;;;;;;15.23;3.80;;;;;;;;;;5021524;28;20132;-78
2022/12/21 12:17:03;;;;;;;8.43;4.07;;;;;;;;;;5007772;28;20473;-79
2022/12/21 12:19:29;;;;;;;11.27;3.10;;;;;;;;;;5010792;28;20550;-76
2022/12/21 12:22:31;;;;;;;9.77;3.33;;;;;;;;;;5006002;28;20447;-78
2022/12/21 12:25:00;;;;;;;8.10;2.87;;;;;;;;;;4951464;28;20102;-78
2022/12/21 12:27:32;;;;;;;9.20;3.20;;;;;;;;;;4998560;28;20458;-78
2022/12/21 12:30:07;;;;;;;5.43;2.85;;;;;;;;;;5007295;28;20034;-78
2022/12/21 12:32:39;;;;;;;8.97;3.03;;;;;;;;;;5006830;28;20443;-78
2022/12/21 12:35:08;;;;;;;8.80;3.40;;;;;;;;;;5025644;28;20037;-78
2022/12/21 12:37:49;;;;;;;8.43;3.13;;;;;;;;;;5023953;28;20026;-78
2022/12/21 12:40:48;;;;;;;8.27;2.50;;;;;;;;;;5003928;28;20038;-77
2022/12/21 12:43:20;;;;;;;12.27;3.67;;;;;;;;;;4995150;28;20128;-78
2022/12/21 12:45:52;;;;;;;15.88;5.15;;;;;;;;;;5025846;28;20042;-78
2022/12/21 12:48:34;;;;;;;9.55;3.42;;;;;;;;;;5015588;28;20041;-78
2022/12/21 12:51:05;;;;;;;9.53;3.33;;;;;;;;;;5010834;28;20026;-77
2022/12/21 12:53:40;;;;;;;19.43;4.53;;;;;;;;;;5012632;28;20018;-77
2022/12/21 12:56:19;;;;;;;10.67;3.43;;;;;;;;;;5029105;28;20033;-77
2022/12/21 12:58:54;;;;;;;11.97;3.37;;;;;;;;;;5007828;28;20025;-77
2022/12/21 13:01:23;;;;;;;7.40;3.87;;;;;;;;;;5010096;28;20072;-77
2022/12/21 13:04:04;;;;;;;9.37;3.33;;;;;;;;;;5011300;28;20117;-78
2022/12/21 13:06:53;;;;;;;9.20;2.57;;;;;;;;;;5027590;28;20040;-77
2022/12/21 13:09:28;;;;;;;11.77;3.10;;;;;;;;;;5009272;28;20034;-78
2022/12/21 13:12:07;;;;;;;13.60;3.10;;;;;;;;;;5025780;28;20036;-78
2022/12/21 13:14:45;;;;;;;11.80;3.27;;;;;;;;;;5012730;28;20041;-78
2022/12/21 13:17:11;;;;;;;8.07;2.97;;;;;;;;;;5023814;28;20044;-78
2022/12/21 13:19:39;;;;;;;15.07;4.10;;;;;;;;;;5012533;28;20026;-78
2022/12/21 13:22:07;;;;;;;11.30;3.90;;;;;;;;;;5040719;28;20037;-78
2022/12/21 13:24:43;;;;;;;9.03;3.23;;;;;;;;;;5042274;28;20021;-78
2022/12/21 13:27:14;;;;;;;7.93;2.90;;;;;;;;;;5017636;28;20017;-78
2022/12/21 13:29:46;;;;;;;10.43;3.33;;;;;;;;;;5016006;28;20079;-78
2022/12/21 13:32:13;;;;;;;9.50;3.30;;;;;;;;;;5023545;28;20095;-78
2022/12/21 13:34:48;;;;;;;7.00;3.20;;;;;;;;;;5030035;28;20083;-78
2022/12/21 13:37:18;;;;;;;8.63;2.90;;;;;;;;;;5028533;28;20021;-78
2022/12/21 13:40:10;;;;;;;8.70;2.80;;;;;;;;;;5033334;28;20033;-78
2022/12/21 13:42:40;;;;;;;7.57;3.08;;;;;;;;;;5035969;28;20038;-77
2022/12/21 13:45:06;;;;;;;10.33;2.90;;;;;;;;;;5030260;28;20029;-78
2022/12/21 13:47:33;;;;;;;8.17;2.53;;;;;;;;;;5022494;28;20026;-78
2022/12/21 13:49:59;;;;;;;6.43;2.60;;;;;;;;;;5026030;28;20022;-78
2022/12/21 13:52:25;;;;;;;9.67;2.67;;;;;;;;;;5022606;28;20684;-78
2022/12/21 13:54:51;;;;;;;7.73;2.70;;;;;;;;;;5037845;28;20033;-78
2022/12/21 13:57:36;;;;;;;11.10;3.13;;;;;;;;;;5017028;28;20033;-77
2022/12/21 14:00:20;;;;;;;9.77;2.93;;;;;;;;;;5028469;28;20033;-77
2022/12/21 14:02:59;;;;;;;8.97;2.80;;;;;;;;;;5031592;28;20036;-77
2022/12/21 14:05:29;;;;;;;7.53;2.70;;;;;;;;;;5038989;28;20022;-78
2022/12/21 14:08:04;;;;;;;7.43;3.03;;;;;;;;;;5020402;28;20458;-77
2022/12/21 14:10:32;;;;;;;10.97;3.30;;;;;;;;;;5019712;28;20017;-78
2022/12/21 14:13:05;;;;;;;8.10;3.20;;;;;;;;;;5020466;28;20025;-78
2022/12/21 14:15:40;;;;;;;5.40;2.65;;;;;;;;;;5017898;28;20401;-77
2022/12/21 14:18:10;;;;;;;8.87;2.97;;;;;;;;;;5020197;28;20865;-78
2022/12/21 14:20:37;;;;;;;9.73;2.90;;;;;;;;;;5016459;28;20620;-78
2022/12/21 14:23:13;;;;;;;7.40;2.63;;;;;;;;;;5019760;28;20342;-78
2022/12/21 14:25:43;;;;;;;9.43;2.77;;;;;;;;;;5028368;28;20132;-79
2022/12/21 14:28:29;;;;;;;6.10;2.23;;;;;;;;;;5020220;28;20078;-78
2022/12/21 14:31:11;;;;;;;3.63;2.00;;;;;;;;;;5027857;28;20109;-79
2022/12/21 14:33:39;;;;;;;5.67;1.83;;;;;;;;;;5016037;28;20037;-78
2022/12/21 14:36:21;;;;;;;4.47;1.80;;;;;;;;;;5023404;28;20028;-79
2022/12/21 14:39:02;;;;;;;5.97;1.70;;;;;;;;;;5024019;28;20041;-78
2022/12/21 14:41:31;;;;;;;5.43;1.60;;;;;;;;;;5005984;28;20025;-78
2022/12/21 14:44:09;;;;;;;4.60;1.43;;;;;;;;;;5037000;28;20022;-78
2022/12/21 14:46:54;;;;;;;6.10;1.83;;;;;;;;;;5020467;28;20028;-78
2022/12/21 14:49:30;;;;;;;5.80;1.47;;;;;;;;;;5037039;28;20052;-78
2022/12/21 14:51:57;;;;;;;5.53;1.60;;;;;;;;;;5037337;28;20036;-79
2022/12/21 14:54:35;;;;;;;4.77;1.23;;;;;;;;;;5037485;28;20077;-79
2022/12/21 14:57:10;;;;;;;4.27;1.53;;;;;;;;;;5011154;28;20037;-79